sensor_id;sensor_type;location;lat;lon;timestamp;temperature;humidity
18823;DHT22;9540;51.550;7.980;2023-02-11T00:00:23;6.00;99.90
18823;DHT22;9540;51.550;7.980;2023-02-11T00:02:50;6.00;99.90
18823;DHT22;9540;51.550;7.980;2023-02-11T00:05:17;6.00;99.90
18823;DHT22;9540;51.550;7.980;2023-02-11T00:07:44;5.90;99.90
18823;DHT22;9540;51.550;7.980;2023-02-11T00:10:11;5.90;99.90
18823;DHT22;9540;51.550;7.980;2023-02-11T00:12:40;5.80;99.90
18823;DHT22;9540;51.550;7.980;2023-02-11T00:15:08;5.80;99.90
18823;DHT22;9540;51.550;7.980;2023-02-11T00:17:36;5.80;99.90
18823;DHT22;9540;51.550;7.980;2023-02-11T00:20:04;5.80;99.90
18823;DHT22;9540;51.550;7.980;2023-02-11T00:22:31;5.80;99.90
18823;DHT22;9540;51.550;7.980;2023-02-11T00:24:58;5.70;99.90
18823;DHT22;9540;51.550;7.980;2023-02-11T00:27:25;5.70;99.90
18823;DHT22;9540;51.550;7.980;2023-02-11T00:29:54;5.60;99.90
18823;DHT22;9540;51.550;7.980;2023-02-11T00:32:21;5.60;99.90
18823;DHT22;9540;51.550;7.980;2023-02-11T00:34:51;5.60;99.90
18823;DHT22;9540;51.550;7.980;2023-02-11T00:37:18;5.50;99.90
18823;DHT22;9540;51.550;7.980;2023-02-11T00:39:45;5.60;99.90
18823;DHT22;9540;51.550;7.980;2023-02-11T00:42:13;5.60;99.90
18823;DHT22;9540;51.550;7.980;2023-02-11T00:44:40;5.60;99.90
18823;DHT22;9540;51.550;7.980;2023-02-11T00:47:09;5.60;99.90
18823;DHT22;9540;51.550;7.980;2023-02-11T00:49:36;5.70;99.90
18823;DHT22;9540;51.550;7.980;2023-02-11T00:52:04;5.70;99.90
18823;DHT22;9540;51.550;7.980;2023-02-11T00:54:32;5.70;99.90
18823;DHT22;9540;51.550;7.980;2023-02-11T00:56:59;5.80;99.90
18823;DHT22;9540;51.550;7.980;2023-02-11T00:59:26;5.80;99.90
18823;DHT22;9540;51.550;7.980;2023-02-11T01:01:53;5.80;99.90
18823;DHT22;9540;51.550;7.980;2023-02-11T01:04:21;5.90;99.90
18823;DHT22;9540;51.550;7.980;2023-02-11T01:06:48;5.90;99.90
18823;DHT22;9540;51.550;7.980;2023-02-11T01:09:16;5.90;99.90
18823;DHT22;9540;51.550;7.980;2023-02-11T01:11:43;5.90;99.90
18823;DHT22;9540;51.550;7.980;2023-02-11T01:14:10;5.90;99.90
18823;DHT22;9540;51.550;7.980;2023-02-11T01:16:37;5.90;99.90
18823;DHT22;9540;51.550;7.980;2023-02-11T01:19:05;5.80;99.90
18823;DHT22;9540;51.550;7.980;2023-02-11T01:21:33;5.80;99.90
18823;DHT22;9540;51.550;7.980;2023-02-11T01:24:00;5.80;99.90
18823;DHT22;9540;51.550;7.980;2023-02-11T01:26:28;5.90;99.90
18823;DHT22;9540;51.550;7.980;2023-02-11T01:28:55;5.90;99.90
18823;DHT22;9540;51.550;7.980;2023-02-11T01:31:22;5.90;99.90
18823;DHT22;9540;51.550;7.980;2023-02-11T01:33:49;5.90;99.90
18823;DHT22;9540;51.550;7.980;2023-02-11T01:36:16;5.90;99.90
18823;DHT22;9540;51.550;7.980;2023-02-11T01:38:45;5.90;99.90
18823;DHT22;9540;51.550;7.980;2023-02-11T01:41:13;5.90;99.90
18823;DHT22;9540;51.550;7.980;2023-02-11T01:43:42;5.90;99.90
18823;DHT22;9540;51.550;7.980;2023-02-11T01:46:25;5.90;99.90
18823;DHT22;9540;51.550;7.980;2023-02-11T01:48:57;5.80;99.90
18823;DHT22;9540;51.550;7.980;2023-02-11T01:51:28;5.80;99.90
18823;DHT22;9540;51.550;7.980;2023-02-11T01:53:59;5.90;99.90
18823;DHT22;9540;51.550;7.980;2023-02-11T01:56:47;5.90;99.90
18823;DHT22;9540;51.550;7.980;2023-02-11T01:59:40;5.90;99.90
18823;DHT22;9540;51.550;7.980;2023-02-11T02:02:11;5.80;99.90
18823;DHT22;9540;51.550;7.980;2023-02-11T02:04:45;5.80;99.90
18823;DHT22;9540;51.550;7.980;2023-02-11T02:07:17;5.70;99.90
18823;DHT22;9540;51.550;7.980;2023-02-11T02:09:51;5.70;99.90
18823;DHT22;9540;51.550;7.980;2023-02-11T02:12:21;5.70;99.90
18823;DHT22;9540;51.550;7.980;2023-02-11T02:14:48;5.60;99.90
18823;DHT22;9540;51.550;7.980;2023-02-11T02:17:27;5.60;99.90
18823;DHT22;9540;51.550;7.980;2023-02-11T02:20:15;5.60;99.90
18823;DHT22;9540;51.550;7.980;2023-02-11T02:26:33;5.60;99.90
18823;DHT22;9540;51.550;7.980;2023-02-11T02:32:36;5.60;99.90
18823;DHT22;9540;51.550;7.980;2023-02-11T02:35:14;5.60;99.90
18823;DHT22;9540;51.550;7.980;2023-02-11T02:37:49;5.60;99.90
18823;DHT22;9540;51.550;7.980;2023-02-11T02:40:21;5.60;99.90
18823;DHT22;9540;51.550;7.980;2023-02-11T02:42:50;5.70;99.90
18823;DHT22;9540;51.550;7.980;2023-02-11T02:45:18;5.70;99.90
18823;DHT22;9540;51.550;7.980;2023-02-11T02:47:47;5.70;99.90
18823;DHT22;9540;51.550;7.980;2023-02-11T02:50:17;5.70;99.90
18823;DHT22;9540;51.550;7.980;2023-02-11T02:52:52;5.70;99.90
18823;DHT22;9540;51.550;7.980;2023-02-11T02:58:47;5.70;99.90
18823;DHT22;9540;51.550;7.980;2023-02-11T03:01:23;5.70;99.90
18823;DHT22;9540;51.550;7.980;2023-02-11T03:04:01;5.70;99.90
18823;DHT22;9540;51.550;7.980;2023-02-11T03:06:41;5.70;99.90
18823;DHT22;9540;51.550;7.980;2023-02-11T03:09:15;5.70;99.90
18823;DHT22;9540;51.550;7.980;2023-02-11T03:11:44;5.70;99.90
18823;DHT22;9540;51.550;7.980;2023-02-11T03:14:14;5.70;99.90
18823;DHT22;9540;51.550;7.980;2023-02-11T03:16:43;5.70;99.90
18823;DHT22;9540;51.550;7.980;2023-02-11T03:19:16;5.70;99.90
18823;DHT22;9540;51.550;7.980;2023-02-11T03:21:46;5.70;99.90
18823;DHT22;9540;51.550;7.980;2023-02-11T03:24:18;5.70;99.90
18823;DHT22;9540;51.550;7.980;2023-02-11T03:26:50;5.70;99.90
18823;DHT22;9540;51.550;7.980;2023-02-11T03:29:29;5.70;99.90
18823;DHT22;9540;51.550;7.980;2023-02-11T03:32:02;5.70;99.90
18823;DHT22;9540;51.550;7.980;2023-02-11T03:34:36;5.70;99.90
18823;DHT22;9540;51.550;7.980;2023-02-11T03:37:08;5.70;99.90
18823;DHT22;9540;51.550;7.980;2023-02-11T03:39:41;5.70;99.90
18823;DHT22;9540;51.550;7.980;2023-02-11T03:42:11;5.70;99.90
18823;DHT22;9540;51.550;7.980;2023-02-11T03:44:44;5.70;99.90
18823;DHT22;9540;51.550;7.980;2023-02-11T03:47:14;5.70;99.90
18823;DHT22;9540;51.550;7.980;2023-02-11T03:49:47;5.70;99.90
18823;DHT22;9540;51.550;7.980;2023-02-11T03:52:16;5.70;99.90
18823;DHT22;9540;51.550;7.980;2023-02-11T03:54:45;5.70;99.90
18823;DHT22;9540;51.550;7.980;2023-02-11T03:57:14;5.60;99.90
18823;DHT22;9540;51.550;7.980;2023-02-11T03:59:55;5.60;99.90
18823;DHT22;9540;51.550;7.980;2023-02-11T04:02:25;5.60;99.90
18823;DHT22;9540;51.550;7.980;2023-02-11T04:04:54;5.60;99.90
18823;DHT22;9540;51.550;7.980;2023-02-11T04:07:21;5.70;99.90
18823;DHT22;9540;51.550;7.980;2023-02-11T04:09:48;5.60;99.90
18823;DHT22;9540;51.550;7.980;2023-02-11T04:12:15;5.60;99.90
18823;DHT22;9540;51.550;7.980;2023-02-11T04:14:43;5.60;99.90
18823;DHT22;9540;51.550;7.980;2023-02-11T04:17:10;5.60;99.90
18823;DHT22;9540;51.550;7.980;2023-02-11T04:19:38;5.60;99.90
18823;DHT22;9540;51.550;7.980;2023-02-11T04:22:06;5.60;99.90
18823;DHT22;9540;51.550;7.980;2023-02-11T04:24:34;5.60;99.90
18823;DHT22;9540;51.550;7.980;2023-02-11T04:27:01;5.60;99.90
18823;DHT22;9540;51.550;7.980;2023-02-11T04:29:28;5.60;99.90
18823;DHT22;9540;51.550;7.980;2023-02-11T04:31:55;5.60;99.90
18823;DHT22;9540;51.550;7.980;2023-02-11T04:34:23;5.60;99.90
18823;DHT22;9540;51.550;7.980;2023-02-11T04:36:50;5.60;99.90
18823;DHT22;9540;51.550;7.980;2023-02-11T04:39:19;5.60;99.90
18823;DHT22;9540;51.550;7.980;2023-02-11T04:41:46;5.50;99.90
18823;DHT22;9540;51.550;7.980;2023-02-11T04:44:13;5.50;99.90
18823;DHT22;9540;51.550;7.980;2023-02-11T04:46:40;5.50;99.90
18823;DHT22;9540;51.550;7.980;2023-02-11T04:49:08;5.50;99.90
18823;DHT22;9540;51.550;7.980;2023-02-11T04:51:36;5.40;99.90
18823;DHT22;9540;51.550;7.980;2023-02-11T04:54:04;5.40;99.90
18823;DHT22;9540;51.550;7.980;2023-02-11T04:56:32;5.40;99.90
18823;DHT22;9540;51.550;7.980;2023-02-11T04:58:59;5.50;99.90
18823;DHT22;9540;51.550;7.980;2023-02-11T05:01:27;5.40;99.90
18823;DHT22;9540;51.550;7.980;2023-02-11T05:03:54;5.40;99.90
18823;DHT22;9540;51.550;7.980;2023-02-11T05:06:21;5.40;99.90
18823;DHT22;9540;51.550;7.980;2023-02-11T05:08:48;5.40;99.90
18823;DHT22;9540;51.550;7.980;2023-02-11T05:11:18;5.40;99.90
18823;DHT22;9540;51.550;7.980;2023-02-11T05:13:48;5.40;99.90
18823;DHT22;9540;51.550;7.980;2023-02-11T05:16:16;5.40;99.90
18823;DHT22;9540;51.550;7.980;2023-02-11T05:18:44;5.30;99.90
18823;DHT22;9540;51.550;7.980;2023-02-11T05:21:13;5.30;99.90
18823;DHT22;9540;51.550;7.980;2023-02-11T05:23:41;5.30;99.90
18823;DHT22;9540;51.550;7.980;2023-02-11T05:26:09;5.20;99.90
18823;DHT22;9540;51.550;7.980;2023-02-11T05:28:36;5.20;99.90
18823;DHT22;9540;51.550;7.980;2023-02-11T05:31:05;5.20;99.90
18823;DHT22;9540;51.550;7.980;2023-02-11T05:33:33;5.20;99.90
18823;DHT22;9540;51.550;7.980;2023-02-11T05:36:06;5.20;99.90
18823;DHT22;9540;51.550;7.980;2023-02-11T05:38:34;5.10;99.90
18823;DHT22;9540;51.550;7.980;2023-02-11T05:41:02;5.10;99.90
18823;DHT22;9540;51.550;7.980;2023-02-11T05:43:30;5.10;99.90
18823;DHT22;9540;51.550;7.980;2023-02-11T05:45:57;5.10;99.90
18823;DHT22;9540;51.550;7.980;2023-02-11T05:48:25;5.10;99.90
18823;DHT22;9540;51.550;7.980;2023-02-11T05:50:52;5.10;99.90
18823;DHT22;9540;51.550;7.980;2023-02-11T05:53:20;5.10;99.90
18823;DHT22;9540;51.550;7.980;2023-02-11T05:55:47;5.10;99.90
18823;DHT22;9540;51.550;7.980;2023-02-11T05:58:14;5.10;99.90
18823;DHT22;9540;51.550;7.980;2023-02-11T06:00:41;5.10;99.90
18823;DHT22;9540;51.550;7.980;2023-02-11T06:03:08;5.10;99.90
18823;DHT22;9540;51.550;7.980;2023-02-11T06:05:36;5.10;99.90
18823;DHT22;9540;51.550;7.980;2023-02-11T06:08:04;5.00;99.90
18823;DHT22;9540;51.550;7.980;2023-02-11T06:10:31;5.10;99.90
18823;DHT22;9540;51.550;7.980;2023-02-11T06:12:58;5.00;99.90
18823;DHT22;9540;51.550;7.980;2023-02-11T06:15:28;5.00;99.90
18823;DHT22;9540;51.550;7.980;2023-02-11T06:17:55;5.00;99.90
18823;DHT22;9540;51.550;7.980;2023-02-11T06:20:22;5.00;99.90
18823;DHT22;9540;51.550;7.980;2023-02-11T06:22:51;5.00;99.90
18823;DHT22;9540;51.550;7.980;2023-02-11T06:25:18;5.00;99.90
18823;DHT22;9540;51.550;7.980;2023-02-11T06:27:45;4.90;99.90
18823;DHT22;9540;51.550;7.980;2023-02-11T06:30:13;4.90;99.90
18823;DHT22;9540;51.550;7.980;2023-02-11T06:32:40;4.90;99.90
18823;DHT22;9540;51.550;7.980;2023-02-11T06:35:07;4.90;99.90
18823;DHT22;9540;51.550;7.980;2023-02-11T06:37:34;4.90;99.90
18823;DHT22;9540;51.550;7.980;2023-02-11T06:40:03;4.90;99.90
18823;DHT22;9540;51.550;7.980;2023-02-11T06:42:31;4.90;99.90
18823;DHT22;9540;51.550;7.980;2023-02-11T06:44:59;4.90;99.90
18823;DHT22;9540;51.550;7.980;2023-02-11T06:47:26;4.90;99.90
18823;DHT22;9540;51.550;7.980;2023-02-11T06:49:53;4.90;99.90
18823;DHT22;9540;51.550;7.980;2023-02-11T06:52:20;4.90;99.90
18823;DHT22;9540;51.550;7.980;2023-02-11T06:54:47;4.90;99.90
18823;DHT22;9540;51.550;7.980;2023-02-11T06:57:16;4.90;99.90
18823;DHT22;9540;51.550;7.980;2023-02-11T06:59:43;4.90;99.90
18823;DHT22;9540;51.550;7.980;2023-02-11T07:02:10;5.00;99.90
18823;DHT22;9540;51.550;7.980;2023-02-11T07:04:37;5.00;99.90
18823;DHT22;9540;51.550;7.980;2023-02-11T07:07:04;5.00;99.90
18823;DHT22;9540;51.550;7.980;2023-02-11T07:09:31;5.00;99.90
18823;DHT22;9540;51.550;7.980;2023-02-11T07:11:58;5.00;99.90
18823;DHT22;9540;51.550;7.980;2023-02-11T07:14:27;5.10;99.90
18823;DHT22;9540;51.550;7.980;2023-02-11T07:16:54;5.10;99.90
18823;DHT22;9540;51.550;7.980;2023-02-11T07:19:21;5.10;99.90
18823;DHT22;9540;51.550;7.980;2023-02-11T07:21:48;5.10;99.90
18823;DHT22;9540;51.550;7.980;2023-02-11T07:24:15;5.10;99.90
18823;DHT22;9540;51.550;7.980;2023-02-11T07:26:42;5.10;99.90
18823;DHT22;9540;51.550;7.980;2023-02-11T07:29:10;5.10;99.90
18823;DHT22;9540;51.550;7.980;2023-02-11T07:31:38;5.20;99.90
18823;DHT22;9540;51.550;7.980;2023-02-11T07:34:06;5.20;99.90
18823;DHT22;9540;51.550;7.980;2023-02-11T07:36:33;5.20;99.90
18823;DHT22;9540;51.550;7.980;2023-02-11T07:39:00;5.20;99.90
18823;DHT22;9540;51.550;7.980;2023-02-11T07:41:27;5.20;99.90
18823;DHT22;9540;51.550;7.980;2023-02-11T07:43:54;5.20;99.90
18823;DHT22;9540;51.550;7.980;2023-02-11T07:46:23;5.20;99.90
18823;DHT22;9540;51.550;7.980;2023-02-11T07:48:52;5.30;99.90
18823;DHT22;9540;51.550;7.980;2023-02-11T07:51:21;5.30;99.90
18823;DHT22;9540;51.550;7.980;2023-02-11T07:53:49;5.30;99.90
18823;DHT22;9540;51.550;7.980;2023-02-11T07:56:18;5.30;99.90
18823;DHT22;9540;51.550;7.980;2023-02-11T07:58:45;5.30;99.90
18823;DHT22;9540;51.550;7.980;2023-02-11T08:01:14;5.30;99.90
18823;DHT22;9540;51.550;7.980;2023-02-11T08:03:42;5.40;99.90
18823;DHT22;9540;51.550;7.980;2023-02-11T08:06:13;5.30;99.90
18823;DHT22;9540;51.550;7.980;2023-02-11T08:08:41;5.40;99.90
18823;DHT22;9540;51.550;7.980;2023-02-11T08:11:09;5.30;99.90
18823;DHT22;9540;51.550;7.980;2023-02-11T08:13:37;5.40;99.90
18823;DHT22;9540;51.550;7.980;2023-02-11T08:16:09;5.40;99.90
18823;DHT22;9540;51.550;7.980;2023-02-11T08:18:47;5.40;99.90
18823;DHT22;9540;51.550;7.980;2023-02-11T08:21:16;5.40;99.90
18823;DHT22;9540;51.550;7.980;2023-02-11T08:23:44;5.50;99.90
18823;DHT22;9540;51.550;7.980;2023-02-11T08:26:14;5.50;99.90
18823;DHT22;9540;51.550;7.980;2023-02-11T08:28:43;5.50;99.90
18823;DHT22;9540;51.550;7.980;2023-02-11T08:31:12;5.50;99.90
18823;DHT22;9540;51.550;7.980;2023-02-11T08:33:40;5.50;99.90
18823;DHT22;9540;51.550;7.980;2023-02-11T08:36:08;5.50;99.90
18823;DHT22;9540;51.550;7.980;2023-02-11T08:38:37;5.60;99.90
18823;DHT22;9540;51.550;7.980;2023-02-11T08:41:04;5.60;99.90
18823;DHT22;9540;51.550;7.980;2023-02-11T08:43:32;5.60;99.90
18823;DHT22;9540;51.550;7.980;2023-02-11T08:46:00;5.70;99.90
18823;DHT22;9540;51.550;7.980;2023-02-11T08:48:27;5.70;99.90
18823;DHT22;9540;51.550;7.980;2023-02-11T08:50:56;5.70;99.90
18823;DHT22;9540;51.550;7.980;2023-02-11T08:53:23;5.70;99.90
18823;DHT22;9540;51.550;7.980;2023-02-11T08:55:53;5.80;99.90
18823;DHT22;9540;51.550;7.980;2023-02-11T08:58:20;5.80;99.90
18823;DHT22;9540;51.550;7.980;2023-02-11T09:00:48;5.80;99.90
18823;DHT22;9540;51.550;7.980;2023-02-11T09:03:15;5.80;99.90
18823;DHT22;9540;51.550;7.980;2023-02-11T09:05:44;5.90;99.90
18823;DHT22;9540;51.550;7.980;2023-02-11T09:08:11;5.90;99.90
18823;DHT22;9540;51.550;7.980;2023-02-11T09:10:38;5.90;99.90
18823;DHT22;9540;51.550;7.980;2023-02-11T09:13:07;6.00;99.90
18823;DHT22;9540;51.550;7.980;2023-02-11T09:15:35;6.00;99.90
18823;DHT22;9540;51.550;7.980;2023-02-11T09:18:02;6.00;99.90
18823;DHT22;9540;51.550;7.980;2023-02-11T09:20:30;6.00;99.90
18823;DHT22;9540;51.550;7.980;2023-02-11T09:22:58;6.00;99.90
18823;DHT22;9540;51.550;7.980;2023-02-11T09:25:25;6.00;99.90
18823;DHT22;9540;51.550;7.980;2023-02-11T09:27:52;6.10;99.90
18823;DHT22;9540;51.550;7.980;2023-02-11T09:30:21;6.10;99.90
18823;DHT22;9540;51.550;7.980;2023-02-11T09:32:48;6.20;99.90
18823;DHT22;9540;51.550;7.980;2023-02-11T09:35:15;6.20;99.90
18823;DHT22;9540;51.550;7.980;2023-02-11T09:37:42;6.20;99.90
18823;DHT22;9540;51.550;7.980;2023-02-11T09:40:10;6.30;99.90
18823;DHT22;9540;51.550;7.980;2023-02-11T09:42:44;6.40;99.90
18823;DHT22;9540;51.550;7.980;2023-02-11T09:45:16;6.50;99.90
18823;DHT22;9540;51.550;7.980;2023-02-11T09:47:48;6.50;99.90
18823;DHT22;9540;51.550;7.980;2023-02-11T09:50:20;6.50;99.90
18823;DHT22;9540;51.550;7.980;2023-02-11T09:52:55;6.60;99.90
18823;DHT22;9540;51.550;7.980;2023-02-11T09:55:26;6.70;99.90
18823;DHT22;9540;51.550;7.980;2023-02-11T09:57:55;6.70;99.90
18823;DHT22;9540;51.550;7.980;2023-02-11T10:00:25;6.80;99.90
18823;DHT22;9540;51.550;7.980;2023-02-11T10:03:07;6.80;99.90
18823;DHT22;9540;51.550;7.980;2023-02-11T10:05:54;6.90;99.90
18823;DHT22;9540;51.550;7.980;2023-02-11T10:08:32;7.00;99.90
18823;DHT22;9540;51.550;7.980;2023-02-11T10:11:07;7.10;99.90
18823;DHT22;9540;51.550;7.980;2023-02-11T10:13:48;7.10;99.90
18823;DHT22;9540;51.550;7.980;2023-02-11T10:16:32;7.20;99.90
18823;DHT22;9540;51.550;7.980;2023-02-11T10:19:16;7.10;99.90
18823;DHT22;9540;51.550;7.980;2023-02-11T10:21:52;7.00;99.90
18823;DHT22;9540;51.550;7.980;2023-02-11T10:24:20;7.00;99.90
18823;DHT22;9540;51.550;7.980;2023-02-11T10:26:51;7.00;99.90
18823;DHT22;9540;51.550;7.980;2023-02-11T10:29:26;7.00;99.90
18823;DHT22;9540;51.550;7.980;2023-02-11T10:31:58;7.10;99.90
18823;DHT22;9540;51.550;7.980;2023-02-11T10:34:27;7.10;99.90
18823;DHT22;9540;51.550;7.980;2023-02-11T10:36:54;7.20;99.90
18823;DHT22;9540;51.550;7.980;2023-02-11T10:39:23;7.20;99.90
18823;DHT22;9540;51.550;7.980;2023-02-11T10:41:53;7.10;99.90
18823;DHT22;9540;51.550;7.980;2023-02-11T10:44:25;7.10;99.90
18823;DHT22;9540;51.550;7.980;2023-02-11T10:46:54;7.10;99.90
18823;DHT22;9540;51.550;7.980;2023-02-11T10:49:38;7.10;99.90
18823;DHT22;9540;51.550;7.980;2023-02-11T10:52:14;7.20;99.90
18823;DHT22;9540;51.550;7.980;2023-02-11T10:54:41;7.20;99.90
18823;DHT22;9540;51.550;7.980;2023-02-11T10:57:21;7.20;99.90
18823;DHT22;9540;51.550;7.980;2023-02-11T10:59:48;7.10;99.90
18823;DHT22;9540;51.550;7.980;2023-02-11T11:02:23;7.10;99.90
18823;DHT22;9540;51.550;7.980;2023-02-11T11:04:55;7.10;99.90
18823;DHT22;9540;51.550;7.980;2023-02-11T11:07:24;7.10;99.90
18823;DHT22;9540;51.550;7.980;2023-02-11T11:09:54;7.00;99.90
18823;DHT22;9540;51.550;7.980;2023-02-11T11:12:45;6.90;99.90
18823;DHT22;9540;51.550;7.980;2023-02-11T11:15:16;6.90;99.90
18823;DHT22;9540;51.550;7.980;2023-02-11T11:17:44;7.00;99.90
18823;DHT22;9540;51.550;7.980;2023-02-11T11:20:22;7.00;99.90
18823;DHT22;9540;51.550;7.980;2023-02-11T11:23:05;6.90;99.90
18823;DHT22;9540;51.550;7.980;2023-02-11T11:25:35;6.90;99.90
18823;DHT22;9540;51.550;7.980;2023-02-11T11:28:03;6.90;99.90
18823;DHT22;9540;51.550;7.980;2023-02-11T11:30:33;6.90;99.90
18823;DHT22;9540;51.550;7.980;2023-02-11T11:33:17;6.90;99.90
18823;DHT22;9540;51.550;7.980;2023-02-11T11:35:56;6.90;99.90
18823;DHT22;9540;51.550;7.980;2023-02-11T11:38:23;6.90;99.90
18823;DHT22;9540;51.550;7.980;2023-02-11T11:41:12;7.00;99.90
18823;DHT22;9540;51.550;7.980;2023-02-11T11:43:40;7.00;99.90
18823;DHT22;9540;51.550;7.980;2023-02-11T11:46:22;7.10;99.90
18823;DHT22;9540;51.550;7.980;2023-02-11T11:48:51;7.10;99.90
18823;DHT22;9540;51.550;7.980;2023-02-11T11:51:23;7.10;99.90
18823;DHT22;9540;51.550;7.980;2023-02-11T11:53:53;7.10;99.90
18823;DHT22;9540;51.550;7.980;2023-02-11T11:56:25;7.10;99.90
18823;DHT22;9540;51.550;7.980;2023-02-11T11:58:53;7.10;99.90
18823;DHT22;9540;51.550;7.980;2023-02-11T12:01:28;7.20;99.90
18823;DHT22;9540;51.550;7.980;2023-02-11T12:04:18;7.20;99.90
18823;DHT22;9540;51.550;7.980;2023-02-11T12:07:10;7.30;99.90
18823;DHT22;9540;51.550;7.980;2023-02-11T12:09:47;7.30;99.90
18823;DHT22;9540;51.550;7.980;2023-02-11T12:12:27;7.40;99.90
18823;DHT22;9540;51.550;7.980;2023-02-11T12:15:07;7.50;99.90
18823;DHT22;9540;51.550;7.980;2023-02-11T12:17:49;7.50;99.90
18823;DHT22;9540;51.550;7.980;2023-02-11T12:20:31;7.50;99.90
18823;DHT22;9540;51.550;7.980;2023-02-11T12:23:17;7.50;99.90
18823;DHT22;9540;51.550;7.980;2023-02-11T12:25:55;7.50;99.90
18823;DHT22;9540;51.550;7.980;2023-02-11T12:28:33;7.40;99.90
18823;DHT22;9540;51.550;7.980;2023-02-11T12:31:11;7.60;99.90
18823;DHT22;9540;51.550;7.980;2023-02-11T12:33:59;7.60;99.90
18823;DHT22;9540;51.550;7.980;2023-02-11T12:36:43;7.50;99.90
18823;DHT22;9540;51.550;7.980;2023-02-11T12:39:22;7.60;99.90
18823;DHT22;9540;51.550;7.980;2023-02-11T12:42:04;7.60;99.90
18823;DHT22;9540;51.550;7.980;2023-02-11T12:45:08;7.60;99.90
18823;DHT22;9540;51.550;7.980;2023-02-11T12:47:46;7.60;99.90
18823;DHT22;9540;51.550;7.980;2023-02-11T12:50:23;7.50;99.90
18823;DHT22;9540;51.550;7.980;2023-02-11T12:53:08;7.60;99.90
18823;DHT22;9540;51.550;7.980;2023-02-11T12:55:43;7.60;99.90
18823;DHT22;9540;51.550;7.980;2023-02-11T12:58:15;7.60;99.90
18823;DHT22;9540;51.550;7.980;2023-02-11T13:00:47;7.60;99.90
18823;DHT22;9540;51.550;7.980;2023-02-11T13:03:21;7.50;99.90
18823;DHT22;9540;51.550;7.980;2023-02-11T13:05:52;7.50;99.90
18823;DHT22;9540;51.550;7.980;2023-02-11T13:08:27;7.50;99.90
18823;DHT22;9540;51.550;7.980;2023-02-11T13:10:59;7.50;99.90
18823;DHT22;9540;51.550;7.980;2023-02-11T13:13:31;7.50;99.90
18823;DHT22;9540;51.550;7.980;2023-02-11T13:16:02;7.50;99.90
18823;DHT22;9540;51.550;7.980;2023-02-11T13:18:43;7.50;99.90
18823;DHT22;9540;51.550;7.980;2023-02-11T13:21:22;7.50;99.90
18823;DHT22;9540;51.550;7.980;2023-02-11T13:23:57;7.50;99.90
18823;DHT22;9540;51.550;7.980;2023-02-11T13:26:32;7.50;99.90
18823;DHT22;9540;51.550;7.980;2023-02-11T13:29:22;7.50;99.90
18823;DHT22;9540;51.550;7.980;2023-02-11T13:31:53;7.40;99.90
18823;DHT22;9540;51.550;7.980;2023-02-11T13:34:25;7.30;99.90
18823;DHT22;9540;51.550;7.980;2023-02-11T13:37:03;7.30;99.90
18823;DHT22;9540;51.550;7.980;2023-02-11T13:39:30;7.40;99.90
18823;DHT22;9540;51.550;7.980;2023-02-11T13:42:03;7.40;99.90
18823;DHT22;9540;51.550;7.980;2023-02-11T13:44:34;7.50;99.90
18823;DHT22;9540;51.550;7.980;2023-02-11T13:47:04;7.50;99.90
18823;DHT22;9540;51.550;7.980;2023-02-11T13:49:34;7.40;99.90
18823;DHT22;9540;51.550;7.980;2023-02-11T13:52:15;7.40;99.90
18823;DHT22;9540;51.550;7.980;2023-02-11T13:54:46;7.40;99.90
18823;DHT22;9540;51.550;7.980;2023-02-11T13:57:38;7.30;99.90
18823;DHT22;9540;51.550;7.980;2023-02-11T14:03:30;7.40;99.90
18823;DHT22;9540;51.550;7.980;2023-02-11T14:06:19;7.40;99.90
18823;DHT22;9540;51.550;7.980;2023-02-11T14:09:33;7.40;99.90
18823;DHT22;9540;51.550;7.980;2023-02-11T14:12:23;7.40;99.90
18823;DHT22;9540;51.550;7.980;2023-02-11T14:15:00;7.40;99.90
18823;DHT22;9540;51.550;7.980;2023-02-11T14:17:30;7.30;99.90
18823;DHT22;9540;51.550;7.980;2023-02-11T14:19:58;7.30;99.90
18823;DHT22;9540;51.550;7.980;2023-02-11T14:22:27;7.30;99.90
18823;DHT22;9540;51.550;7.980;2023-02-11T14:24:56;7.40;99.90
18823;DHT22;9540;51.550;7.980;2023-02-11T14:27:41;7.40;99.90
18823;DHT22;9540;51.550;7.980;2023-02-11T14:30:38;7.40;99.90
18823;DHT22;9540;51.550;7.980;2023-02-11T14:36:29;7.40;99.90
18823;DHT22;9540;51.550;7.980;2023-02-11T14:39:06;7.40;99.90
18823;DHT22;9540;51.550;7.980;2023-02-11T14:41:40;7.40;99.90
18823;DHT22;9540;51.550;7.980;2023-02-11T14:44:15;7.40;99.90
18823;DHT22;9540;51.550;7.980;2023-02-11T14:46:47;7.40;99.90
18823;DHT22;9540;51.550;7.980;2023-02-11T14:49:22;7.40;99.90
18823;DHT22;9540;51.550;7.980;2023-02-11T14:51:53;7.40;99.90
18823;DHT22;9540;51.550;7.980;2023-02-11T14:54:23;7.50;99.90
18823;DHT22;9540;51.550;7.980;2023-02-11T14:57:06;7.50;99.90
18823;DHT22;9540;51.550;7.980;2023-02-11T14:59:34;7.50;99.90
18823;DHT22;9540;51.550;7.980;2023-02-11T15:02:02;7.50;99.90
18823;DHT22;9540;51.550;7.980;2023-02-11T15:04:31;7.60;99.90
18823;DHT22;9540;51.550;7.980;2023-02-11T15:07:04;7.60;99.90
18823;DHT22;9540;51.550;7.980;2023-02-11T15:09:37;7.60;99.90
18823;DHT22;9540;51.550;7.980;2023-02-11T15:12:08;7.70;99.90
18823;DHT22;9540;51.550;7.980;2023-02-11T15:14:45;7.70;99.90
18823;DHT22;9540;51.550;7.980;2023-02-11T15:17:26;7.60;99.90
18823;DHT22;9540;51.550;7.980;2023-02-11T15:19:59;7.70;99.90
18823;DHT22;9540;51.550;7.980;2023-02-11T15:22:29;7.80;99.90
18823;DHT22;9540;51.550;7.980;2023-02-11T15:25:00;7.80;99.90
18823;DHT22;9540;51.550;7.980;2023-02-11T15:27:37;7.80;99.90
18823;DHT22;9540;51.550;7.980;2023-02-11T15:30:26;7.80;99.90
18823;DHT22;9540;51.550;7.980;2023-02-11T15:32:57;7.80;99.90
18823;DHT22;9540;51.550;7.980;2023-02-11T15:35:26;7.70;99.90
18823;DHT22;9540;51.550;7.980;2023-02-11T15:37:58;7.70;99.90
18823;DHT22;9540;51.550;7.980;2023-02-11T15:40:27;7.60;99.90
18823;DHT22;9540;51.550;7.980;2023-02-11T15:42:57;7.60;99.90
18823;DHT22;9540;51.550;7.980;2023-02-11T15:45:29;7.60;99.90
18823;DHT22;9540;51.550;7.980;2023-02-11T15:48:06;7.60;99.90
18823;DHT22;9540;51.550;7.980;2023-02-11T15:50:36;7.60;99.90
18823;DHT22;9540;51.550;7.980;2023-02-11T15:53:20;7.60;99.90
18823;DHT22;9540;51.550;7.980;2023-02-11T15:55:49;7.60;99.90
18823;DHT22;9540;51.550;7.980;2023-02-11T15:58:17;7.50;99.90
18823;DHT22;9540;51.550;7.980;2023-02-11T16:00:48;7.50;99.90
18823;DHT22;9540;51.550;7.980;2023-02-11T16:03:22;7.40;99.90
18823;DHT22;9540;51.550;7.980;2023-02-11T16:05:50;7.40;99.90
18823;DHT22;9540;51.550;7.980;2023-02-11T16:08:21;7.40;99.90
18823;DHT22;9540;51.550;7.980;2023-02-11T16:10:56;7.30;99.90
18823;DHT22;9540;51.550;7.980;2023-02-11T16:13:25;7.30;99.90
18823;DHT22;9540;51.550;7.980;2023-02-11T16:15:56;7.30;99.90
18823;DHT22;9540;51.550;7.980;2023-02-11T16:18:49;7.30;99.90
18823;DHT22;9540;51.550;7.980;2023-02-11T16:21:17;7.30;99.90
18823;DHT22;9540;51.550;7.980;2023-02-11T16:23:50;7.30;99.90
18823;DHT22;9540;51.550;7.980;2023-02-11T16:26:25;7.30;99.90
18823;DHT22;9540;51.550;7.980;2023-02-11T16:29:00;7.20;99.90
18823;DHT22;9540;51.550;7.980;2023-02-11T16:31:32;7.20;99.90
18823;DHT22;9540;51.550;7.980;2023-02-11T16:34:01;7.20;99.90
18823;DHT22;9540;51.550;7.980;2023-02-11T16:36:28;7.20;99.90
18823;DHT22;9540;51.550;7.980;2023-02-11T16:38:55;7.20;99.90
18823;DHT22;9540;51.550;7.980;2023-02-11T16:41:22;7.20;99.90
18823;DHT22;9540;51.550;7.980;2023-02-11T16:43:49;7.10;99.90
18823;DHT22;9540;51.550;7.980;2023-02-11T16:46:16;7.10;99.90